Time;durP1;ratioP1;P1;durP2;ratioP2;P2;SDS_P1;SDS_P2;PMS_P1;PMS_P2;Temp;Humidity;BMP_temperature;BMP_pressure;BME280_temperature;BME280_humidity;BME280_pressure;Samples;Min_cycle;Max_cycle;Signal;HPM_P1;HPM_P2
2022/04/29 00:02:36;;;;;;;8.23;3.65;;;6.60;99.90;;;;;;2229882;64;20203;-70
2022/04/29 00:05:13;;;;;;;4.20;3.30;;;6.60;99.90;;;;;;2230306;64;20189;-71
2022/04/29 00:07:51;;;;;;;6.30;3.65;;;6.60;99.90;;;;;;2230298;64;20605;-71
2022/04/29 00:10:30;;;;;;;6.72;3.50;;;6.60;99.90;;;;;;2230484;64;20257;-71
2022/04/29 00:13:11;;;;;;;7.82;4.03;;;6.60;99.90;;;;;;2230845;64;20850;-71
2022/04/29 00:15:50;;;;;;;7.00;3.80;;;6.60;99.90;;;;;;2230780;64;20694;-71
2022/04/29 00:18:28;;;;;;;12.43;3.30;;;6.50;99.90;;;;;;2229989;64;20571;-71
2022/04/29 00:21:09;;;;;;;8.38;3.78;;;6.50;99.90;;;;;;2230667;64;20262;-71
2022/04/29 00:23:51;;;;;;;5.70;3.83;;;6.50;99.90;;;;;;2230741;64;20217;-72
2022/04/29 00:26:27;;;;;;;5.50;3.50;;;6.50;99.90;;;;;;2229039;64;20250;-71
2022/04/29 00:29:07;;;;;;;12.38;3.70;;;6.50;99.90;;;;;;2230292;64;20273;-71
2022/04/29 00:31:48;;;;;;;5.97;3.75;;;6.50;99.90;;;;;;2228153;64;20770;-72
2022/04/29 00:34:27;;;;;;;5.22;3.42;;;6.50;99.90;;;;;;2222846;64;20341;-71
2022/04/29 00:37:06;;;;;;;6.53;4.47;;;6.60;99.90;;;;;;2230496;64;20638;-71
2022/04/29 00:39:45;;;;;;;8.13;4.00;;;7.10;99.90;;;;;;2229685;64;20150;-72
2022/04/29 00:42:23;;;;;;;11.55;4.30;;;6.50;99.90;;;;;;2230256;64;20167;-72
2022/04/29 00:45:02;;;;;;;7.30;3.28;;;6.50;99.90;;;;;;2225528;64;20197;-71
2022/04/29 00:47:39;;;;;;;5.78;3.75;;;6.40;99.90;;;;;;2230002;64;20296;-71
2022/04/29 00:50:20;;;;;;;6.47;4.15;;;6.40;99.90;;;;;;2230310;64;20158;-72
2022/04/29 00:53:01;;;;;;;7.78;3.88;;;6.40;99.90;;;;;;2229949;64;20199;-72
2022/04/29 00:55:40;;;;;;;8.48;4.05;;;6.30;99.90;;;;;;2229524;64;20200;-71
2022/04/29 00:58:33;;;;;;;8.88;4.25;;;6.30;99.90;;;;;;2228323;64;20162;-73
2022/04/29 01:01:12;;;;;;;8.45;4.70;;;6.20;99.90;;;;;;2225691;64;20227;-72
2022/04/29 01:03:54;;;;;;;7.82;4.25;;;6.20;99.90;;;;;;2231313;64;20360;-72
2022/04/29 01:06:35;;;;;;;8.18;4.72;;;6.20;99.90;;;;;;2229921;64;20618;-72
2022/04/29 01:09:14;;;;;;;7.40;4.57;;;6.10;99.90;;;;;;2229563;64;20226;-71
2022/04/29 01:11:52;;;;;;;9.77;5.03;;;6.10;99.90;;;;;;2230024;64;20196;-71
2022/04/29 01:14:34;;;;;;;6.50;4.80;;;6.10;99.90;;;;;;2230675;64;20233;-72
2022/04/29 01:17:15;;;;;;;7.65;4.78;;;6.10;99.90;;;;;;2229694;64;20187;-71
2022/04/29 01:19:56;;;;;;;8.43;5.53;;;6.10;99.90;;;;;;2231645;64;20218;-72
2022/04/29 01:22:37;;;;;;;8.25;5.22;;;6.10;99.90;;;;;;2231311;64;20298;-72
2022/04/29 01:25:17;;;;;;;8.20;4.55;;;6.10;99.90;;;;;;2232035;64;20185;-73
2022/04/29 01:27:55;;;;;;;5.88;4.57;;;6.20;99.90;;;;;;2232970;64;20226;-70
2022/04/29 01:30:36;;;;;;;10.25;5.75;;;6.20;99.90;;;;;;2232844;64;20289;-72
2022/04/29 01:33:13;;;;;;;9.77;4.82;;;6.10;99.90;;;;;;2231559;64;20159;-71
2022/04/29 01:35:58;;;;;;;11.45;6.20;;;6.20;99.90;;;;;;2226892;64;20308;-71
2022/04/29 01:38:38;;;;;;;8.60;4.97;;;6.20;99.90;;;;;;2231664;64;20194;-71
2022/04/29 01:41:18;;;;;;;11.38;5.10;;;6.20;99.90;;;;;;2230581;64;20162;-72
2022/04/29 01:43:56;;;;;;;9.77;4.80;;;6.30;99.90;;;;;;2231580;64;20214;-71
2022/04/29 01:46:36;;;;;;;10.70;4.97;;;6.30;99.90;;;;;;2230866;64;20184;-70
2022/04/29 01:49:15;;;;;;;10.13;5.97;;;6.30;99.90;;;;;;2229154;64;20178;-72
2022/04/29 01:51:57;;;;;;;7.18;5.47;;;6.20;99.90;;;;;;2231752;64;20308;-71
2022/04/29 01:54:37;;;;;;;7.63;4.47;;;6.20;99.90;;;;;;2231693;64;20232;-73
2022/04/29 01:57:18;;;;;;;10.65;5.68;;;6.80;99.90;;;;;;2231277;64;20188;-71
2022/04/29 01:59:58;;;;;;;7.97;5.13;;;6.20;99.90;;;;;;2231516;64;20187;-71
2022/04/29 02:02:37;;;;;;;7.40;4.90;;;6.20;99.90;;;;;;2232414;64;20163;-72
2022/04/29 02:05:17;;;;;;;9.57;5.40;;;6.10;99.90;;;;;;2231022;64;20648;-72
2022/04/29 02:08:00;;;;;;;8.45;5.22;;;6.10;99.90;;;;;;2230888;64;20186;-71
2022/04/29 02:10:38;;;;;;;8.15;5.30;;;6.10;99.90;;;;;;2232265;64;20174;-71
2022/04/29 02:13:14;;;;;;;9.18;4.72;;;6.10;99.90;;;;;;2230880;64;20222;-72
2022/04/29 02:15:51;;;;;;;6.55;4.50;;;6.10;99.90;;;;;;2231326;64;20166;-72
2022/04/29 02:18:27;;;;;;;7.30;4.80;;;6.10;99.90;;;;;;2233262;64;20182;-71
2022/04/29 02:21:04;;;;;;;7.20;5.10;;;6.10;99.90;;;;;;2230984;64;20222;-72
2022/04/29 02:23:42;;;;;;;11.15;5.57;;;6.20;99.90;;;;;;2231297;64;20215;-74
2022/04/29 02:26:22;;;;;;;9.80;4.75;;;6.20;99.90;;;;;;2230853;64;20189;-72
2022/04/29 02:29:00;;;;;;;11.00;5.20;;;6.20;99.90;;;;;;2232708;64;20167;-71
2022/04/29 02:31:40;;;;;;;6.10;4.45;;;6.30;99.90;;;;;;2234326;64;20167;-71
2022/04/29 02:34:20;;;;;;;8.88;4.68;;;6.30;99.90;;;;;;2235686;64;20170;-72
2022/04/29 02:36:57;;;;;;;8.75;5.30;;;6.30;99.90;;;;;;2233911;64;20186;-71
2022/04/29 02:39:35;;;;;;;7.57;5.05;;;6.30;99.90;;;;;;2232116;64;20204;-71
2022/04/29 02:42:15;;;;;;;7.07;4.85;;;6.30;99.90;;;;;;2233045;64;20314;-71
2022/04/29 02:44:55;;;;;;;11.95;5.65;;;6.40;99.90;;;;;;2233396;64;20175;-71
2022/04/29 02:47:33;;;;;;;6.53;4.85;;;6.40;99.90;;;;;;2233346;64;20216;-71
2022/04/29 02:50:13;;;;;;;6.57;4.90;;;6.40;99.90;;;;;;2232529;64;20187;-71
2022/04/29 02:52:51;;;;;;;7.05;4.85;;;6.50;99.90;;;;;;2232834;64;20315;-71
2022/04/29 02:55:31;;;;;;;10.93;4.93;;;6.40;99.90;;;;;;2232339;64;20220;-71
2022/04/29 02:58:12;;;;;;;10.98;4.93;;;6.40;99.90;;;;;;2230825;64;20201;-71
2022/04/29 03:00:48;;;;;;;7.57;5.30;;;6.40;99.90;;;;;;2230503;64;20204;-71
2022/04/29 03:03:24;;;;;;;7.07;4.85;;;6.50;99.90;;;;;;2230908;64;20384;-71
2022/04/29 03:06:02;;;;;;;9.32;5.22;;;6.50;99.90;;;;;;2231225;64;20300;-72
2022/04/29 03:08:48;;;;;;;7.72;4.85;;;6.50;99.90;;;;;;2230039;64;20199;-72
2022/04/29 03:11:28;;;;;;;7.45;5.00;;;6.50;99.90;;;;;;2230631;64;20594;-71
2022/04/29 03:14:06;;;;;;;9.90;5.90;;;6.50;99.90;;;;;;2229776;64;20163;-72
2022/04/29 03:16:45;;;;;;;6.95;4.72;;;6.50;99.90;;;;;;2230322;64;20188;-72
2022/04/29 03:19:24;;;;;;;8.95;5.40;;;6.40;99.90;;;;;;2230474;64;20178;-72
2022/04/29 03:22:04;;;;;;;9.02;5.47;;;6.50;99.90;;;;;;2230704;64;20320;-71
2022/04/29 03:24:42;;;;;;;8.40;5.13;;;6.40;99.90;;;;;;2229824;64;20204;-71
2022/04/29 03:27:24;;;;;;;8.77;4.88;;;6.50;99.90;;;;;;2230355;64;20277;-72
2022/04/29 03:30:01;;;;;;;8.68;4.95;;;6.40;99.90;;;;;;2229908;64;20178;-72
2022/04/29 03:32:38;;;;;;;7.40;4.88;;;6.40;99.90;;;;;;2230717;64;20192;-72
2022/04/29 03:35:17;;;;;;;7.82;5.45;;;6.40;99.90;;;;;;2229526;64;20244;-72
2022/04/29 03:37:56;;;;;;;6.20;5.10;;;6.40;99.90;;;;;;2229582;64;20218;-72
2022/04/29 03:40:33;;;;;;;9.75;5.45;;;6.40;99.90;;;;;;2227263;64;20171;-71
2022/04/29 03:43:12;;;;;;;8.73;5.10;;;6.40;99.90;;;;;;2233180;64;20244;-72
2022/04/29 03:45:48;;;;;;;8.13;5.68;;;6.40;99.90;;;;;;2232132;64;20239;-71
2022/04/29 03:48:25;;;;;;;8.48;5.80;;;6.40;99.90;;;;;;2231372;64;20193;-71
2022/04/29 03:51:06;;;;;;;6.63;5.05;;;6.40;99.90;;;;;;2233157;64;20705;-72
2022/04/29 03:53:44;;;;;;;8.05;5.40;;;6.40;99.90;;;;;;2230846;64;20269;-71
2022/04/29 03:56:25;;;;;;;9.27;5.82;;;6.60;99.90;;;;;;2229480;64;20196;-72
2022/04/29 03:59:05;;;;;;;8.48;4.97;;;6.40;99.90;;;;;;2230232;64;20360;-72
2022/04/29 04:01:42;;;;;;;9.40;5.30;;;6.50;99.90;;;;;;2228432;64;20596;-72
2022/04/29 04:04:19;;;;;;;9.70;5.80;;;6.50;99.90;;;;;;2229788;64;20202;-71
2022/04/29 04:07:01;;;;;;;8.63;5.80;;;6.60;99.90;;;;;;2226497;64;20178;-72
2022/04/29 04:09:41;;;;;;;10.43;5.95;;;6.60;99.90;;;;;;2230093;64;20187;-72
2022/04/29 04:12:20;;;;;;;6.95;6.10;;;6.60;99.90;;;;;;2231188;64;20173;-72
2022/04/29 04:15:00;;;;;;;11.60;5.88;;;6.60;99.90;;;;;;2230322;64;20174;-71
2022/04/29 04:17:39;;;;;;;11.70;6.50;;;6.60;99.90;;;;;;2230421;64;20329;-71
2022/04/29 04:20:19;;;;;;;13.25;6.45;;;6.60;99.90;;;;;;2230423;64;20198;-72
2022/04/29 04:22:55;;;;;;;10.00;6.15;;;6.60;99.90;;;;;;2230795;64;20653;-72
2022/04/29 04:25:37;;;;;;;7.18;5.45;;;6.60;99.90;;;;;;2230734;64;20193;-72
2022/04/29 04:28:16;;;;;;;6.63;5.90;;;6.70;99.90;;;;;;2230675;64;20167;-72
2022/04/29 04:30:53;;;;;;;10.95;5.85;;;6.60;99.90;;;;;;2229634;64;20554;-71
2022/04/29 04:33:29;;;;;;;11.50;5.57;;;6.50;99.90;;;;;;2222105;64;20316;-72
2022/04/29 04:36:06;;;;;;;14.43;6.45;;;6.50;99.90;;;;;;2222972;64;20187;-71
2022/04/29 04:38:45;;;;;;;8.07;6.28;;;6.80;99.90;;;;;;2230268;64;20932;-71
2022/04/29 04:41:25;;;;;;;9.93;6.18;;;6.60;99.90;;;;;;2230416;64;20236;-73
2022/04/29 04:44:05;;;;;;;11.63;6.75;;;6.60;99.90;;;;;;2230430;64;20171;-72
2022/04/29 04:46:45;;;;;;;11.45;7.15;;;6.70;99.90;;;;;;2229497;64;20259;-72
2022/04/29 04:49:23;;;;;;;7.15;6.25;;;6.80;99.90;;;;;;2230453;64;20200;-72
2022/04/29 04:52:03;;;;;;;12.50;6.97;;;6.80;99.90;;;;;;2230593;64;20523;-71
2022/04/29 04:54:41;;;;;;;8.63;6.38;;;7.00;99.90;;;;;;2227370;64;20179;-72
2022/04/29 04:57:17;;;;;;;9.40;6.15;;;7.10;99.90;;;;;;2222923;64;20163;-72
2022/04/29 04:59:58;;;;;;;9.45;6.72;;;7.20;99.90;;;;;;2222819;64;20187;-71
2022/04/29 05:02:38;;;;;;;10.32;7.05;;;7.30;99.90;;;;;;1993215;64;15107067;-71
2022/04/29 05:05:15;;;;;;;10.07;6.10;;;7.50;99.90;;;;;;2230016;64;20187;-72
2022/04/29 05:07:52;;;;;;;9.63;6.25;;;7.50;99.90;;;;;;2230495;64;20196;-72
2022/04/29 05:10:32;;;;;;;9.73;6.30;;;7.60;99.90;;;;;;2230458;64;20229;-71
2022/04/29 05:13:10;;;;;;;9.15;6.35;;;7.60;99.90;;;;;;2230398;64;20175;-72
2022/04/29 05:15:50;;;;;;;15.15;6.30;;;7.70;99.90;;;;;;2230612;64;20641;-72
2022/04/29 05:18:28;;;;;;;8.10;5.40;;;7.80;99.90;;;;;;2230471;64;20159;-73
2022/04/29 05:21:07;;;;;;;7.40;6.22;;;7.90;99.90;;;;;;2230276;64;20545;-72
2022/04/29 05:23:46;;;;;;;7.85;5.55;;;7.90;99.90;;;;;;2230325;64;20376;-71
2022/04/29 05:26:25;;;;;;;7.93;5.78;;;8.00;99.90;;;;;;2230465;64;20263;-72
2022/04/29 05:29:02;;;;;;;8.95;6.15;;;8.00;99.90;;;;;;2225190;64;20283;-71
2022/04/29 05:31:39;;;;;;;6.22;4.97;;;8.00;99.90;;;;;;2222642;64;20159;-72
2022/04/29 05:34:22;;;;;;;5.78;5.18;;;8.00;99.90;;;;;;2222541;64;20283;-72
2022/04/29 05:37:02;;;;;;;8.55;4.85;;;8.00;99.90;;;;;;2222657;64;20172;-72
2022/04/29 05:42:40;;;;;;;6.65;4.10;;;8.20;99.90;;;;;;2222558;64;20564;-72
2022/04/29 05:45:19;;;;;;;8.55;5.60;;;8.40;99.90;;;;;;2222590;64;20657;-73
2022/04/29 05:47:59;;;;;;;7.95;4.80;;;8.40;99.90;;;;;;2222566;64;20200;-72
2022/04/29 05:50:36;;;;;;;5.95;5.10;;;8.70;99.90;;;;;;2227159;64;20852;-72
2022/04/29 05:53:15;;;;;;;5.60;4.90;;;8.50;99.90;;;;;;2230252;64;20557;-72
2022/04/29 05:55:53;;;;;;;7.43;4.78;;;8.60;99.90;;;;;;2229842;64;20696;-71
2022/04/29 05:58:30;;;;;;;8.93;4.50;;;8.60;99.90;;;;;;2230184;64;20278;-71
2022/04/29 06:01:11;;;;;;;6.57;4.50;;;8.60;99.90;;;;;;2231172;64;20254;-72
2022/04/29 06:03:52;;;;;;;8.75;4.28;;;8.70;99.90;;;;;;2231443;64;20605;-71
2022/04/29 06:06:33;;;;;;;6.65;3.83;;;8.70;99.90;;;;;;2231430;64;20780;-71
2022/04/29 06:09:10;;;;;;;9.02;4.40;;;8.80;99.90;;;;;;2231524;64;20204;-72
2022/04/29 06:11:48;;;;;;;6.90;4.10;;;8.80;99.90;;;;;;2231520;64;20270;-72
2022/04/29 06:14:28;;;;;;;7.20;4.85;;;8.80;99.90;;;;;;2230874;64;20163;-71
2022/04/29 06:17:06;;;;;;;6.90;4.03;;;8.90;99.90;;;;;;2231861;64;20208;-73
2022/04/29 06:19:52;;;;;;;6.75;3.92;;;9.00;99.90;;;;;;2231991;64;20194;-71
2022/04/29 06:22:33;;;;;;;6.75;4.00;;;9.00;99.90;;;;;;2232788;64;20321;-71
2022/04/29 06:25:14;;;;;;;5.40;4.07;;;9.20;99.90;;;;;;2232919;64;20163;-72
2022/04/29 06:27:53;;;;;;;5.28;4.10;;;9.60;99.90;;;;;;2233352;64;20179;-71
2022/04/29 06:30:30;;;;;;;4.30;3.90;;;9.40;99.90;;;;;;2230671;64;20167;-72
2022/04/29 06:33:07;;;;;;;6.70;3.97;;;9.40;99.90;;;;;;2231815;64;20175;-72
2022/04/29 06:35:47;;;;;;;5.78;4.65;;;9.60;99.90;;;;;;2231687;64;20250;-72
2022/04/29 06:38:28;;;;;;;5.97;4.90;;;9.60;99.90;;;;;;2231349;64;20308;-72
2022/04/29 06:41:09;;;;;;;6.43;3.88;;;9.70;99.90;;;;;;2229377;64;20228;-72
2022/04/29 06:43:49;;;;;;;8.50;3.70;;;10.30;99.90;;;;;;2226698;64;20596;-72
2022/04/29 06:46:25;;;;;;;10.27;3.33;;;9.80;99.90;;;;;;2223498;64;20252;-72
2022/04/29 06:49:02;;;;;;;4.57;2.88;;;9.90;99.90;;;;;;2223708;64;20222;-71
2022/04/29 06:51:39;;;;;;;7.20;3.35;;;10.20;99.90;;;;;;2223563;64;20332;-71
2022/04/29 06:54:18;;;;;;;4.40;3.63;;;10.10;99.90;;;;;;2223737;64;20658;-71
2022/04/29 06:56:56;;;;;;;7.90;3.10;;;10.20;99.90;;;;;;2227833;64;20204;-72
2022/04/29 06:59:37;;;;;;;4.65;3.42;;;10.30;99.70;;;;;;2227111;64;20188;-72
2022/04/29 07:02:16;;;;;;;5.95;3.47;;;10.40;99.60;;;;;;2223862;64;20216;-71
2022/04/29 07:04:53;;;;;;;5.82;3.17;;;10.40;99.30;;;;;;2223963;64;20167;-71
2022/04/29 07:07:36;;;;;;;3.92;3.40;;;10.40;99.20;;;;;;2225171;64;20234;-72
2022/04/29 07:10:24;;;;;;;8.77;3.70;;;10.50;99.10;;;;;;2201630;65;20285;-72
2022/04/29 07:13:03;;;;;;;4.53;3.72;;;10.50;98.80;;;;;;2199161;65;20276;-70
2022/04/29 07:15:43;;;;;;;3.78;3.42;;;10.40;98.60;;;;;;2205719;64;20340;-71
2022/04/29 07:18:23;;;;;;;10.40;3.90;;;10.40;98.40;;;;;;2206972;65;20172;-76
2022/04/29 07:21:01;;;;;;;11.02;3.72;;;10.40;98.30;;;;;;2206209;65;20196;-72
2022/04/29 07:23:41;;;;;;;6.80;3.85;;;10.40;98.30;;;;;;2206232;65;20349;-72
2022/04/29 07:26:22;;;;;;;7.38;4.00;;;10.40;98.20;;;;;;2207887;64;20340;-74
2022/04/29 07:29:04;;;;;;;6.90;3.70;;;10.50;98.10;;;;;;2208114;64;20172;-73
2022/04/29 07:31:47;;;;;;;8.75;3.70;;;10.50;98.20;;;;;;2210160;64;20731;-75
2022/04/29 07:43:13;;;;;;;3.22;2.05;;;10.60;97.80;;;;;;2223273;64;20189;-70
2022/04/29 07:45:52;;;;;;;6.68;3.03;;;10.60;97.30;;;;;;2228082;64;20235;-74
2022/04/29 07:48:33;;;;;;;4.43;2.22;;;10.70;96.90;;;;;;2223191;64;20751;-71
2022/04/29 07:51:13;;;;;;;3.13;2.00;;;10.80;96.10;;;;;;2226174;64;20166;-71
2022/04/29 07:53:54;;;;;;;2.70;2.20;;;11.10;95.90;;;;;;2230233;64;20647;-73
2022/04/29 07:56:33;;;;;;;4.80;2.22;;;11.10;95.30;;;;;;2230174;64;20301;-71
2022/04/29 07:59:12;;;;;;;3.92;2.05;;;11.70;95.00;;;;;;2223004;64;20156;-72
2022/04/29 08:01:52;;;;;;;3.70;2.17;;;11.60;94.50;;;;;;2228833;64;20358;-71
2022/04/29 08:04:33;;;;;;;3.60;2.38;;;11.60;93.90;;;;;;2228545;64;20655;-71
2022/04/29 08:07:11;;;;;;;3.90;2.28;;;11.70;93.60;;;;;;2226966;64;20727;-72
2022/04/29 08:09:56;;;;;;;;;;;11.80;93.40;;;;;;2223412;64;20193;-71
2022/04/29 08:12:40;;;;;;;3.55;2.10;;;11.80;92.90;;;;;;2222641;64;20075;-71
2022/04/29 08:15:19;;;;;;;3.22;2.17;;;11.90;93.00;;;;;;2222694;64;20216;-72
2022/04/29 08:17:57;;;;;;;3.60;2.08;;;11.90;92.50;;;;;;2229045;64;20357;-72
2022/04/29 08:20:34;;;;;;;4.22;2.35;;;12.00;92.10;;;;;;2231360;64;20226;-71
2022/04/29 08:23:12;;;;;;;2.97;2.17;;;12.00;91.60;;;;;;2230228;64;20356;-71
2022/04/29 08:25:51;;;;;;;3.40;2.10;;;12.00;91.30;;;;;;2229974;64;20323;-72
2022/04/29 08:28:29;;;;;;;4.10;1.95;;;12.40;91.30;;;;;;2230339;64;20166;-71
2022/04/29 08:31:10;;;;;;;2.75;2.20;;;12.10;91.00;;;;;;2229619;64;20154;-74
2022/04/29 08:33:50;;;;;;;3.45;1.95;;;12.20;90.90;;;;;;2231038;64;20801;-71
2022/04/29 08:36:31;;;;;;;4.07;2.28;;;12.30;90.80;;;;;;2229797;64;20183;-72
2022/04/29 08:39:11;;;;;;;3.97;2.50;;;12.50;90.80;;;;;;2228565;64;20621;-71
2022/04/29 08:41:50;;;;;;;4.03;2.55;;;12.70;90.80;;;;;;2229341;64;20212;-72
2022/04/29 08:44:31;;;;;;;8.23;2.80;;;12.70;90.30;;;;;;2229021;64;20364;-73
2022/04/29 08:47:08;;;;;;;5.28;2.67;;;12.70;90.00;;;;;;2229507;64;20624;-73
2022/04/29 08:49:46;;;;;;;8.55;2.90;;;12.80;89.20;;;;;;2229971;64;20171;-72
2022/04/29 08:52:26;;;;;;;5.38;2.70;;;12.70;88.70;;;;;;2229317;64;20778;-72
2022/04/29 09:01:03;;;;;;;7.88;3.33;;;12.80;88.00;;;;;;2227684;64;20171;-72
2022/04/29 09:03:43;;;;;;;6.72;2.70;;;12.90;87.20;;;;;;2230253;64;20186;-71
2022/04/29 09:06:23;;;;;;;4.18;2.42;;;13.00;86.10;;;;;;2229891;64;20278;-71
2022/04/29 09:09:09;;;;;;;3.88;2.13;;;13.10;86.30;;;;;;2228627;64;20864;-71
2022/04/29 09:11:47;;;;;;;4.63;2.40;;;13.30;84.60;;;;;;2230072;64;20221;-72
2022/04/29 09:14:25;;;;;;;3.95;2.25;;;13.40;83.60;;;;;;2228485;64;20207;-74
2022/04/29 09:17:02;;;;;;;3.67;2.20;;;13.40;82.00;;;;;;2222414;64;20200;-72
2022/04/29 09:19:40;;;;;;;7.68;3.03;;;13.30;81.70;;;;;;2222309;64;20171;-73
2022/04/29 09:22:18;;;;;;;4.22;2.30;;;13.30;81.70;;;;;;2227816;64;20272;-70
2022/04/29 09:25:02;;;;;;;4.45;2.55;;;13.20;81.20;;;;;;2228076;64;20579;-70
2022/04/29 09:27:58;;;;;;;4.10;2.92;;;13.20;81.20;;;;;;2222761;64;20756;-71
2022/04/29 09:30:41;;;;;;;2.88;2.40;;;13.20;80.80;;;;;;2230451;64;20183;-72
2022/04/29 09:33:21;;;;;;;3.47;2.65;;;13.30;80.40;;;;;;2228845;64;20299;-71
2022/04/29 09:35:58;;;;;;;2.92;2.63;;;13.30;79.60;;;;;;2230991;64;20171;-71
2022/04/29 09:42:01;;;;;;;3.20;2.90;;;13.20;80.40;;;;;;2214495;64;20321;-73
2022/04/29 09:44:43;;;;;;;5.10;3.25;;;13.20;80.10;;;;;;2230199;64;20163;-72
2022/04/29 09:47:23;;;;;;;3.75;2.78;;;13.10;80.40;;;;;;2223646;64;20311;-72
2022/04/29 09:50:02;;;;;;;4.63;2.80;;;13.10;80.30;;;;;;2223754;64;20678;-71
2022/04/29 09:52:44;;;;;;;3.90;3.00;;;13.00;80.40;;;;;;2223541;64;20184;-72
2022/04/29 09:55:22;;;;;;;5.50;3.42;;;12.90;80.50;;;;;;2223554;64;20204;-74
2022/04/29 09:58:02;;;;;;;4.75;2.72;;;13.00;80.60;;;;;;2223532;64;20187;-73
2022/04/29 10:00:39;;;;;;;7.68;3.55;;;12.80;80.40;;;;;;2223550;64;20196;-72
2022/04/29 10:03:17;;;;;;;4.15;3.50;;;12.80;80.30;;;;;;2231188;64;20312;-74
2022/04/29 10:05:58;;;;;;;4.60;3.47;;;12.60;80.50;;;;;;2231110;64;20188;-73
2022/04/29 10:08:37;;;;;;;8.05;3.65;;;12.50;80.80;;;;;;2227840;64;20229;-73
2022/04/29 10:11:14;;;;;;;7.22;3.28;;;12.40;81.10;;;;;;2223628;64;20253;-74
2022/04/29 10:13:52;;;;;;;3.15;2.85;;;12.40;81.30;;;;;;2226439;64;20193;-73
2022/04/29 10:16:33;;;;;;;6.13;3.72;;;12.40;81.10;;;;;;2230600;64;20193;-73
2022/04/29 10:22:11;;;;;;;8.65;3.38;;;12.30;81.60;;;;;;2231081;64;20163;-72
2022/04/29 10:24:51;;;;;;;7.95;3.70;;;12.30;81.50;;;;;;2230958;64;20183;-73
2022/04/29 10:27:32;;;;;;;5.40;3.40;;;12.30;81.40;;;;;;2226297;64;20340;-71
2022/04/29 10:30:12;;;;;;;4.13;3.72;;;12.30;81.40;;;;;;2225493;64;20578;-72
2022/04/29 10:33:14;;;;;;;4.07;3.13;;;12.40;81.60;;;;;;2229065;64;20171;-71
2022/04/29 10:35:58;;;;;;;4.88;3.58;;;12.30;81.50;;;;;;2223908;64;20243;-71
2022/04/29 10:38:39;;;;;;;4.05;3.10;;;12.30;81.70;;;;;;2230946;64;20694;-71
2022/04/29 10:41:21;;;;;;;4.05;3.20;;;12.30;81.60;;;;;;2230734;64;20192;-70
2022/04/29 10:44:08;;;;;;;5.78;3.85;;;12.30;81.60;;;;;;2230817;64;20567;-71
2022/04/29 10:46:49;;;;;;;8.60;4.10;;;12.30;81.20;;;;;;2230587;64;20155;-71
2022/04/29 10:49:33;;;;;;;3.83;3.42;;;12.20;80.80;;;;;;2231096;64;20341;-71
2022/04/29 10:52:28;;;;;;;5.90;3.25;;;12.20;80.80;;;;;;2226138;64;20263;-70
2022/04/29 10:55:23;;;;;;;5.40;2.88;;;12.30;79.80;;;;;;2223330;64;20292;-71
2022/04/29 10:58:04;;;;;;;5.32;3.65;;;12.20;80.60;;;;;;2228264;64;20166;-70
2022/04/29 11:00:56;;;;;;;5.30;3.28;;;12.30;79.80;;;;;;2230988;64;20323;-71
2022/04/29 11:03:38;;;;;;;3.72;3.35;;;12.30;79.10;;;;;;2230778;64;20282;-72
2022/04/29 11:06:45;;;;;;;3.67;3.25;;;12.40;79.20;;;;;;2231354;64;20206;-72
2022/04/29 11:09:25;;;;;;;6.22;3.20;;;12.60;79.10;;;;;;2231348;64;20609;-72
2022/04/29 11:12:03;;;;;;;6.80;3.55;;;12.80;78.70;;;;;;2231385;64;20174;-71
2022/04/29 11:15:06;;;;;;;4.55;3.20;;;13.00;78.30;;;;;;2230693;64;20651;-73
2022/04/29 11:17:47;;;;;;;17.65;7.13;;;13.20;77.00;;;;;;2230616;64;20653;-73
2022/04/29 11:20:26;;;;;;;10.57;3.60;;;13.30;76.10;;;;;;2230806;64;20178;-72
2022/04/29 11:26:02;;;;;;;9.20;3.83;;;13.50;74.60;;;;;;2227137;64;20171;-72
2022/04/29 11:28:41;;;;;;;8.07;3.20;;;13.60;74.40;;;;;;2230688;64;20667;-72
2022/04/29 11:31:23;;;;;;;4.15;2.97;;;13.60;74.00;;;;;;2226343;64;20217;-72
2022/04/29 11:34:11;;;;;;;4.55;2.80;;;13.70;73.60;;;;;;2223217;64;20232;-72
2022/04/29 11:36:58;;;;;;;4.00;2.55;;;13.70;73.40;;;;;;2227763;64;20179;-71
2022/04/29 11:39:38;;;;;;;4.05;2.10;;;13.70;73.20;;;;;;2230400;64;20239;-72
2022/04/29 11:42:19;;;;;;;5.63;2.70;;;13.60;73.10;;;;;;2230785;64;20699;-72
2022/04/29 11:45:08;;;;;;;7.63;2.88;;;13.70;73.40;;;;;;2228299;64;20300;-71
2022/04/29 11:47:45;;;;;;;4.65;2.30;;;13.70;73.10;;;;;;2222762;64;20213;-72
2022/04/29 11:50:37;;;;;;;4.78;2.55;;;13.90;72.90;;;;;;2228773;64;20336;-73
2022/04/29 11:53:17;;;;;;;5.75;2.92;;;14.00;72.60;;;;;;2230391;64;20170;-72
2022/04/29 11:55:54;;;;;;;4.90;2.55;;;14.10;72.00;;;;;;2230350;64;20387;-72
2022/04/29 11:58:38;;;;;;;3.83;2.35;;;14.20;71.50;;;;;;2229990;64;20592;-70
2022/04/29 12:01:19;;;;;;;2.60;2.17;;;14.20;71.20;;;;;;2230484;64;20406;-71
2022/04/29 12:03:56;;;;;;;7.22;2.80;;;14.20;71.20;;;;;;2228617;64;20193;-71
2022/04/29 12:06:56;;;;;;;5.18;3.45;;;14.30;70.90;;;;;;2223692;64;20183;-71
2022/04/29 12:09:36;;;;;;;5.00;2.50;;;14.40;70.90;;;;;;2229448;64;20221;-72
2022/04/29 12:12:32;;;;;;;2.72;2.50;;;14.40;70.50;;;;;;2225029;64;20665;-70
2022/04/29 12:15:12;;;;;;;4.85;2.53;;;14.50;70.60;;;;;;2223580;64;20592;-73
2022/04/29 12:17:58;;;;;;;3.65;2.42;;;14.50;70.20;;;;;;2230241;64;20186;-74
2022/04/29 12:20:37;;;;;;;4.55;2.60;;;14.60;69.50;;;;;;2224340;64;20204;-72
2022/04/29 12:23:22;;;;;;;5.85;2.00;;;14.50;69.40;;;;;;2229041;64;20254;-69
2022/04/29 12:26:04;;;;;;;3.78;2.60;;;14.40;69.30;;;;;;2230192;64;20583;-73
2022/04/29 12:28:58;;;;;;;3.47;2.50;;;14.30;69.70;;;;;;2224093;64;20300;-73
2022/04/29 12:34:51;;;;;;;4.07;2.65;;;14.20;70.20;;;;;;2223141;64;20779;-74
2022/04/29 12:37:27;;;;;;;3.13;2.35;;;14.10;70.30;;;;;;2227341;64;20176;-75
2022/04/29 12:40:09;;;;;;;5.35;3.83;;;14.10;70.00;;;;;;2225103;64;20217;-73
2022/04/29 12:42:46;;;;;;;4.93;2.47;;;14.00;69.70;;;;;;2226084;64;20171;-75
2022/04/29 12:45:26;;;;;;;5.22;2.75;;;13.90;70.30;;;;;;2225684;64;20284;-75
2022/04/29 12:48:04;;;;;;;3.10;2.58;;;13.90;70.20;;;;;;2226068;64;20191;-74
2022/04/29 12:50:45;;;;;;;4.53;2.58;;;13.80;70.20;;;;;;2228746;64;20178;-75
2022/04/29 12:53:23;;;;;;;6.28;3.45;;;13.80;70.40;;;;;;2227803;64;20257;-75
2022/04/29 12:56:00;;;;;;;2.95;2.70;;;13.80;70.40;;;;;;2223492;64;20624;-74
2022/04/29 12:58:43;;;;;;;3.60;2.85;;;13.70;70.20;;;;;;2224135;64;20185;-74
2022/04/29 13:01:24;;;;;;;4.07;2.65;;;13.80;70.50;;;;;;2228989;64;20251;-72
2022/04/29 13:04:06;;;;;;;5.30;2.42;;;13.80;70.20;;;;;;2227121;64;20895;-71
2022/04/29 13:06:47;;;;;;;5.25;2.42;;;14.00;70.80;;;;;;2222483;64;20175;-72
2022/04/29 13:09:32;;;;;;;3.53;2.47;;;14.20;69.60;;;;;;2222355;64;20299;-72
2022/04/29 13:12:14;;;;;;;5.78;2.25;;;14.40;69.30;;;;;;2223180;64;20682;-72
2022/04/29 13:14:52;;;;;;;4.10;2.88;;;14.70;69.20;;;;;;2226874;64;20155;-72
2022/04/29 13:17:34;;;;;;;3.15;2.38;;;14.40;68.70;;;;;;2226301;64;20302;-71
2022/04/29 13:20:15;;;;;;;4.75;2.70;;;14.40;68.60;;;;;;2230037;64;20695;-72
2022/04/29 13:22:56;;;;;;;2.40;2.17;;;14.30;68.70;;;;;;2230216;64;20188;-69
2022/04/29 13:25:39;;;;;;;3.00;2.13;;;14.10;68.90;;;;;;2229716;64;20245;-72
2022/04/29 13:28:17;;;;;;;7.55;2.78;;;14.10;69.20;;;;;;2230374;64;20189;-71
2022/04/29 13:30:53;;;;;;;2.85;2.60;;;14.10;69.30;;;;;;2229441;64;20295;-74
2022/04/29 13:33:29;;;;;;;3.83;2.50;;;14.10;69.40;;;;;;2227300;64;20213;-73
2022/04/29 13:36:08;;;;;;;5.03;2.50;;;14.00;69.40;;;;;;2222542;64;20192;-72
2022/04/29 13:38:45;;;;;;;2.92;2.30;;;14.10;70.20;;;;;;2222274;64;20263;-73
2022/04/29 13:41:22;;;;;;;4.20;2.28;;;13.90;69.90;;;;;;2228504;64;20755;-73
2022/04/29 13:44:02;;;;;;;4.20;2.53;;;13.80;70.30;;;;;;2227197;64;20170;-74
2022/04/29 13:46:42;;;;;;;3.97;2.35;;;13.70;70.80;;;;;;2227973;64;20184;-73
2022/04/29 13:49:21;;;;;;;4.38;3.40;;;13.60;71.10;;;;;;2229570;64;20191;-72
2022/04/29 13:53:07;;;;;;;5.78;2.88;;;13.60;71.40;;;;;;2228534;64;20659;-73
2022/04/29 13:54:58;;;;;;;3.35;2.70;;;13.60;71.50;;;;;;2229825;64;20200;-72
2022/04/29 13:57:34;;;;;;;;;;;13.70;71.60;;;;;;2230629;64;20387;-72
2022/04/29 14:00:13;;;;;;;6.65;3.33;;;13.80;72.10;;;;;;2229828;64;20047;-73
2022/04/29 14:02:55;;;;;;;4.22;3.40;;;13.90;72.20;;;;;;2230062;64;20260;-71
2022/04/29 14:05:34;;;;;;;5.47;3.58;;;14.10;72.80;;;;;;2230059;64;20338;-72
2022/04/29 14:08:11;;;;;;;5.07;3.13;;;14.20;72.90;;;;;;2229773;64;20196;-71
2022/04/29 14:10:50;;;;;;;4.47;3.17;;;14.20;73.10;;;;;;2229928;64;20190;-72
2022/04/29 14:13:28;;;;;;;4.40;3.38;;;14.20;73.10;;;;;;2227580;64;20183;-72
2022/04/29 14:16:09;;;;;;;4.47;2.95;;;14.20;73.50;;;;;;2229968;64;20342;-72
2022/04/29 14:18:48;;;;;;;4.40;3.22;;;14.20;73.50;;;;;;2229027;64;20204;-71
2022/04/29 14:21:26;;;;;;;6.82;4.28;;;14.10;73.20;;;;;;2230479;64;20234;-70
2022/04/29 14:24:07;;;;;;;10.75;4.38;;;14.00;73.60;;;;;;2231040;64;20186;-70
2022/04/29 14:26:46;;;;;;;4.28;3.88;;;13.70;74.60;;;;;;2230648;64;20207;-71
2022/04/29 14:29:24;;;;;;;6.80;4.45;;;13.60;75.90;;;;;;2225923;64;20204;-71